createdAt,value
2023-02-16T00:00:44.976Z,88.33
2023-02-16T00:03:11.354Z,88.16
2023-02-16T00:05:37.630Z,88.08
2023-02-16T00:08:04.103Z,88.26
2023-02-16T00:10:30.435Z,88.55
2023-02-16T00:12:56.807Z,88.58
2023-02-16T00:15:23.217Z,88.31
2023-02-16T00:17:49.565Z,88.38
2023-02-16T00:20:15.903Z,88.61
2023-02-16T00:22:42.231Z,88.87
2023-02-16T00:25:08.577Z,89.10
2023-02-16T00:27:34.895Z,89.39
2023-02-16T00:30:01.296Z,89.48
2023-02-16T00:32:27.631Z,89.77
2023-02-16T00:34:54.028Z,90.21
2023-02-16T00:37:20.376Z,90.88
2023-02-16T00:39:46.744Z,91.25
2023-02-16T00:42:15.509Z,91.07
2023-02-16T00:44:41.848Z,90.82
2023-02-16T00:47:08.179Z,90.86
2023-02-16T00:49:34.563Z,90.48
2023-02-16T00:52:00.916Z,90.05
2023-02-16T00:54:27.265Z,89.89
2023-02-16T00:56:53.572Z,90.06
2023-02-16T00:59:19.996Z,89.85
2023-02-16T01:01:46.378Z,89.61
2023-02-16T01:04:12.708Z,89.46
2023-02-16T01:06:39.048Z,89.64
2023-02-16T01:09:05.417Z,89.62
2023-02-16T01:11:31.731Z,89.54
2023-02-16T01:13:58.117Z,89.50
2023-02-16T01:16:24.440Z,89.48
2023-02-16T01:18:50.820Z,89.56
2023-02-16T01:21:17.149Z,89.66
2023-02-16T01:23:43.525Z,89.65
2023-02-16T01:26:09.845Z,89.83
2023-02-16T01:28:36.265Z,89.44
2023-02-16T01:31:03.014Z,89.60
2023-02-16T01:33:28.975Z,89.38
2023-02-16T01:35:55.275Z,89.29
2023-02-16T01:38:21.643Z,88.89
2023-02-16T01:40:48.013Z,88.80
2023-02-16T01:43:14.358Z,88.75
2023-02-16T01:45:40.717Z,88.74
2023-02-16T01:48:07.077Z,89.22
2023-02-16T01:50:33.484Z,89.34
2023-02-16T01:52:59.821Z,89.91
2023-02-16T01:55:26.192Z,90.32
2023-02-16T01:57:52.518Z,90.54
2023-02-16T02:00:18.886Z,90.83
2023-02-16T02:02:45.330Z,90.67
2023-02-16T02:05:11.656Z,90.58
2023-02-16T02:07:38.037Z,90.60
2023-02-16T02:10:04.377Z,90.73
2023-02-16T02:12:30.752Z,90.85
2023-02-16T02:14:57.072Z,90.88
2023-02-16T02:17:23.454Z,90.96
2023-02-16T02:19:50.116Z,90.98
2023-02-16T02:22:16.461Z,91.21
2023-02-16T02:24:42.814Z,91.56
2023-02-16T02:27:09.200Z,92.01
2023-02-16T02:29:35.566Z,92.29
2023-02-16T02:32:01.988Z,92.45
2023-02-16T02:34:28.303Z,92.48
2023-02-16T02:36:54.681Z,92.54
2023-02-16T02:39:21.039Z,92.52
2023-02-16T02:41:47.424Z,92.46
2023-02-16T02:44:13.777Z,92.42
2023-02-16T02:46:40.259Z,92.52
2023-02-16T02:49:06.565Z,92.79
2023-02-16T02:51:32.951Z,93.00
2023-02-16T02:53:59.265Z,92.82
2023-02-16T02:56:25.646Z,92.73
2023-02-16T02:58:51.973Z,92.59
2023-02-16T03:01:18.365Z,92.26
2023-02-16T03:03:44.704Z,92.23
2023-02-16T03:06:11.090Z,92.17
2023-02-16T03:08:37.446Z,92.19
2023-02-16T03:11:04.190Z,92.21
2023-02-16T03:13:30.153Z,92.36
2023-02-16T03:15:56.558Z,92.38
2023-02-16T03:18:22.840Z,92.45
2023-02-16T03:20:49.171Z,92.49
2023-02-16T03:23:15.487Z,92.43
2023-02-16T03:25:41.835Z,92.15
2023-02-16T03:28:08.190Z,92.00
2023-02-16T03:30:34.647Z,91.87
2023-02-16T03:33:00.854Z,91.66
2023-02-16T03:35:27.198Z,91.57
2023-02-16T03:37:53.597Z,91.36
2023-02-16T03:40:19.975Z,91.33
2023-02-16T03:42:46.327Z,91.29
2023-02-16T03:45:12.753Z,91.41
2023-02-16T03:47:39.107Z,91.48
2023-02-16T03:50:05.500Z,91.55
2023-02-16T03:52:31.862Z,91.71
2023-02-16T03:54:58.239Z,91.75
2023-02-16T03:57:24.553Z,91.78
2023-02-16T03:59:50.949Z,91.84
2023-02-16T04:02:17.428Z,92.07
2023-02-16T04:04:43.678Z,92.19
2023-02-16T04:07:10.571Z,92.37
2023-02-16T04:09:36.923Z,92.49
2023-02-16T04:12:03.558Z,92.57
2023-02-16T04:14:29.891Z,92.46
2023-02-16T04:16:56.252Z,92.33
2023-02-16T04:19:22.601Z,92.31
2023-02-16T04:21:48.967Z,92.38
2023-02-16T04:24:15.622Z,92.42
2023-02-16T04:26:41.936Z,92.45
2023-02-16T04:29:08.334Z,92.36
2023-02-16T04:31:34.826Z,92.35
2023-02-16T04:34:01.081Z,92.52
2023-02-16T04:36:27.424Z,92.63
2023-02-16T04:38:53.738Z,92.71
2023-02-16T04:41:20.126Z,92.87
2023-02-16T04:43:46.473Z,92.95
2023-02-16T04:46:12.859Z,93.26
2023-02-16T04:48:39.181Z,93.45
2023-02-16T04:51:05.939Z,93.75
2023-02-16T04:53:31.906Z,93.75
2023-02-16T04:55:58.374Z,93.63
2023-02-16T04:58:24.730Z,93.57
2023-02-16T05:00:51.153Z,93.56
2023-02-16T05:03:17.494Z,93.69
2023-02-16T05:05:43.911Z,93.84
2023-02-16T05:08:10.273Z,94.02
2023-02-16T05:10:36.634Z,94.20
2023-02-16T05:13:03.198Z,94.64
2023-02-16T05:15:29.566Z,94.70
2023-02-16T05:17:55.829Z,94.73
2023-02-16T05:20:22.219Z,94.69
2023-02-16T05:22:48.534Z,94.25
2023-02-16T05:25:15.012Z,93.77
2023-02-16T05:27:41.509Z,93.31
2023-02-16T05:30:07.856Z,93.10
2023-02-16T05:32:34.173Z,93.10
2023-02-16T05:35:00.685Z,93.09
2023-02-16T05:37:27.062Z,93.08
2023-02-16T05:39:53.402Z,92.78
2023-02-16T05:42:19.855Z,92.30
2023-02-16T05:44:46.229Z,91.73
2023-02-16T05:47:12.607Z,91.09
2023-02-16T05:49:38.958Z,90.14
2023-02-16T05:52:05.320Z,89.48
2023-02-16T05:54:31.788Z,88.99
2023-02-16T05:56:58.104Z,88.24
2023-02-16T05:59:24.467Z,87.54
2023-02-16T06:01:52.343Z,87.36
2023-02-16T06:04:17.192Z,86.98
2023-02-16T06:06:45.765Z,86.60
2023-02-16T06:09:12.124Z,85.87
2023-02-16T06:11:38.477Z,85.20
2023-02-16T06:14:04.886Z,84.23
2023-02-16T06:16:31.220Z,83.74
2023-02-16T06:18:57.798Z,82.58
2023-02-16T06:21:24.200Z,81.75
2023-02-16T06:23:50.542Z,81.62
2023-02-16T06:26:16.924Z,80.80
2023-02-16T06:28:43.246Z,80.37
2023-02-16T06:31:09.703Z,79.83
2023-02-16T06:33:36.086Z,79.37
2023-02-16T06:36:02.466Z,78.68
2023-02-16T06:38:28.809Z,77.66
2023-02-16T06:40:55.218Z,76.70
2023-02-16T06:43:21.603Z,77.14
2023-02-16T06:45:47.917Z,77.44
2023-02-16T06:48:14.565Z,77.33
2023-02-16T06:50:40.930Z,77.03
2023-02-16T06:53:07.269Z,76.85
2023-02-16T06:55:33.679Z,77.03
2023-02-16T06:58:00.044Z,77.30
2023-02-16T07:00:26.484Z,77.00
2023-02-16T07:02:52.811Z,76.84
2023-02-16T07:05:19.114Z,76.50
2023-02-16T07:07:45.498Z,75.40
2023-02-16T07:10:11.834Z,75.62
2023-02-16T07:12:38.249Z,75.92
2023-02-16T07:15:04.609Z,75.21
2023-02-16T07:17:31.007Z,73.69
2023-02-16T07:19:59.899Z,72.95
2023-02-16T07:22:24.250Z,72.59
2023-02-16T07:24:50.605Z,72.29
2023-02-16T07:27:16.945Z,70.95
2023-02-16T07:29:44.280Z,68.60
2023-02-16T07:32:10.751Z,69.83
2023-02-16T07:34:37.235Z,69.81
2023-02-16T07:37:04.764Z,70.01
2023-02-16T07:39:31.117Z,70.90
2023-02-16T07:41:57.470Z,71.36
2023-02-16T07:44:23.785Z,70.00
2023-02-16T07:46:50.247Z,70.53
2023-02-16T07:49:16.623Z,69.60
2023-02-16T07:51:43.017Z,69.80
2023-02-16T07:54:09.393Z,69.81
2023-02-16T07:56:35.739Z,69.65
2023-02-16T07:59:02.543Z,68.62
2023-02-16T08:01:28.929Z,68.54
2023-02-16T08:03:57.412Z,68.56
2023-02-16T08:06:23.751Z,66.56
2023-02-16T08:08:50.080Z,64.26
2023-02-16T08:11:16.482Z,64.61
2023-02-16T08:13:42.776Z,64.10
2023-02-16T08:16:09.202Z,63.94
2023-02-16T08:18:35.517Z,61.62
2023-02-16T08:21:04.519Z,63.44
2023-02-16T08:23:28.310Z,62.76
2023-02-16T08:25:54.684Z,60.31
2023-02-16T08:28:21.045Z,59.64
2023-02-16T08:30:47.493Z,61.45
2023-02-16T08:33:13.807Z,62.80
2023-02-16T08:35:40.145Z,63.23
2023-02-16T08:38:06.561Z,63.06
2023-02-16T08:40:33.198Z,61.69
2023-02-16T08:42:59.513Z,62.12
2023-02-16T08:45:25.964Z,60.30
2023-02-16T08:47:52.317Z,61.76
2023-02-16T08:50:18.657Z,61.04
2023-02-16T08:52:45.027Z,61.07
2023-02-16T08:55:11.470Z,60.11
2023-02-16T08:57:37.876Z,61.86
2023-02-16T09:00:04.175Z,61.45
2023-02-16T09:02:30.615Z,59.85
2023-02-16T09:04:56.965Z,59.18
2023-02-16T09:07:23.337Z,58.05
2023-02-16T09:09:49.796Z,57.24
2023-02-16T09:12:16.118Z,57.72
2023-02-16T09:14:42.449Z,57.63
2023-02-16T09:17:08.835Z,57.67
2023-02-16T09:19:35.128Z,56.26
2023-02-16T09:22:01.495Z,55.85
2023-02-16T09:24:27.879Z,53.75
2023-02-16T09:26:54.198Z,53.91
2023-02-16T09:29:20.646Z,52.65
2023-02-16T09:31:47.214Z,51.44
2023-02-16T09:34:13.594Z,51.02
2023-02-16T09:36:39.952Z,51.49
2023-02-16T09:39:06.395Z,53.06
2023-02-16T09:41:32.710Z,52.13
2023-02-16T09:43:59.121Z,51.10
2023-02-16T09:46:25.605Z,50.30
2023-02-16T09:48:51.943Z,51.14
2023-02-16T09:51:18.928Z,51.37
2023-02-16T09:53:45.496Z,50.36
2023-02-16T09:56:11.852Z,49.49
2023-02-16T09:58:38.280Z,50.00
2023-02-16T10:01:04.576Z,49.63
2023-02-16T10:03:30.949Z,48.78
2023-02-16T10:05:57.268Z,48.61
2023-02-16T10:08:23.614Z,47.78
2023-02-16T10:10:49.939Z,48.19
2023-02-16T10:13:16.399Z,48.39
2023-02-16T10:15:42.781Z,48.31
2023-02-16T10:18:09.123Z,47.65
2023-02-16T10:20:35.774Z,46.72
2023-02-16T10:23:02.164Z,45.80
2023-02-16T10:25:28.490Z,45.01
2023-02-16T10:27:54.886Z,45.04
2023-02-16T10:30:21.522Z,45.15
2023-02-16T10:32:47.582Z,45.55
2023-02-16T10:35:14.015Z,46.77
2023-02-16T10:37:40.489Z,46.04
2023-02-16T10:40:06.844Z,45.32
2023-02-16T10:42:33.238Z,45.66
2023-02-16T10:44:59.590Z,45.63
2023-02-16T10:47:26.099Z,45.01
2023-02-16T10:49:52.420Z,44.52
2023-02-16T10:52:18.817Z,43.60
2023-02-16T10:54:45.176Z,44.06
2023-02-16T10:57:11.595Z,43.99
2023-02-16T10:59:37.956Z,44.03
2023-02-16T11:02:04.325Z,43.53
2023-02-16T11:04:30.793Z,42.55
2023-02-16T11:06:57.099Z,43.75
2023-02-16T11:09:23.429Z,43.08
2023-02-16T11:11:50.154Z,41.89
2023-02-16T11:14:16.504Z,42.17
2023-02-16T11:16:42.897Z,42.18
2023-02-16T11:19:09.230Z,41.44
2023-02-16T11:21:35.645Z,41.25
2023-02-16T11:24:02.000Z,40.51
2023-02-16T11:26:28.329Z,40.58
2023-02-16T11:28:54.668Z,40.24
2023-02-16T11:31:21.136Z,40.00
2023-02-16T11:33:47.411Z,40.51
2023-02-16T11:36:13.788Z,39.86
2023-02-16T11:38:40.109Z,39.56
2023-02-16T11:41:06.932Z,39.59
2023-02-16T11:43:32.920Z,40.96
2023-02-16T11:45:59.258Z,40.53
2023-02-16T11:48:25.580Z,39.60
2023-02-16T11:50:53.674Z,39.00
2023-02-16T11:53:18.363Z,38.91
2023-02-16T11:55:44.750Z,38.50
2023-02-16T11:58:11.069Z,39.49
2023-02-16T12:00:37.491Z,40.09
2023-02-16T12:03:04.002Z,39.99
2023-02-16T12:05:30.431Z,40.11
2023-02-16T12:07:56.841Z,39.41
2023-02-16T12:10:23.195Z,38.66
2023-02-16T12:12:49.527Z,38.66
2023-02-16T12:15:15.993Z,38.20
2023-02-16T12:17:42.310Z,37.86
2023-02-16T12:20:08.725Z,38.16
2023-02-16T12:22:35.333Z,37.66
2023-02-16T12:25:01.725Z,36.93
2023-02-16T12:27:28.046Z,36.86
2023-02-16T12:29:54.533Z,37.31
2023-02-16T12:32:20.835Z,36.87
2023-02-16T12:34:48.749Z,36.03
2023-02-16T12:37:13.608Z,36.00
2023-02-16T12:39:39.946Z,35.73
2023-02-16T12:42:06.317Z,36.00
2023-02-16T12:44:32.726Z,35.87
2023-02-16T12:46:59.085Z,36.17
2023-02-16T12:49:25.446Z,35.76
2023-02-16T12:51:51.798Z,35.86
2023-02-16T12:54:18.178Z,36.30
2023-02-16T12:56:44.531Z,35.23
2023-02-16T12:59:10.906Z,35.05
2023-02-16T13:01:37.460Z,35.12
2023-02-16T13:04:03.811Z,34.70
2023-02-16T13:06:30.250Z,34.73
2023-02-16T13:08:56.646Z,34.63
2023-02-16T13:11:22.985Z,35.13
2023-02-16T13:13:49.413Z,35.24
2023-02-16T13:16:28.938Z,35.17
2023-02-16T13:18:42.277Z,35.18
2023-02-16T13:21:08.665Z,35.51
2023-02-16T13:23:35.002Z,35.38
2023-02-16T13:26:01.600Z,34.79
2023-02-16T13:28:28.012Z,34.96
2023-02-16T13:30:54.543Z,35.10
2023-02-16T13:33:20.648Z,35.09
2023-02-16T13:35:46.975Z,34.99
2023-02-16T13:38:13.370Z,34.80
2023-02-16T13:40:39.806Z,34.45
2023-02-16T13:43:06.206Z,34.78
2023-02-16T13:45:32.662Z,34.76
2023-02-16T13:47:59.384Z,34.69
2023-02-16T13:50:25.764Z,35.86
2023-02-16T13:52:52.092Z,36.33
2023-02-16T13:55:18.456Z,36.77
2023-02-16T13:57:50.151Z,37.17
2023-02-16T14:00:11.171Z,37.23
2023-02-16T14:02:37.578Z,37.55
2023-02-16T14:05:03.911Z,38.41
2023-02-16T14:07:30.260Z,38.29
2023-02-16T14:09:56.645Z,38.53
2023-02-16T14:12:23.473Z,38.91
2023-02-16T14:14:50.874Z,38.69
2023-02-16T14:17:16.172Z,39.00
2023-02-16T14:19:42.503Z,38.98
2023-02-16T14:22:08.885Z,38.85
2023-02-16T14:24:35.210Z,39.13
2023-02-16T14:27:01.758Z,39.09
2023-02-16T14:29:28.135Z,39.10
2023-02-16T14:31:54.557Z,39.12
2023-02-16T14:34:20.849Z,39.47
2023-02-16T14:36:47.211Z,39.70
2023-02-16T14:39:13.574Z,40.00
2023-02-16T14:41:39.920Z,40.03
2023-02-16T14:44:06.314Z,40.25
2023-02-16T14:46:33.092Z,40.34
2023-02-16T14:49:01.684Z,40.35
2023-02-16T14:51:28.078Z,40.41
2023-02-16T14:53:54.453Z,40.65
2023-02-16T14:56:20.789Z,40.69
2023-02-16T14:58:47.212Z,40.93
2023-02-16T15:01:13.637Z,41.07
2023-02-16T15:03:40.351Z,40.96
2023-02-16T15:06:06.831Z,41.00
2023-02-16T15:08:32.740Z,40.97
2023-02-16T15:10:59.062Z,41.12
2023-02-16T15:13:25.417Z,41.27
2023-02-16T15:15:51.859Z,41.29
2023-02-16T15:18:18.244Z,41.31
2023-02-16T15:20:44.555Z,41.42
2023-02-16T15:23:10.952Z,41.73
2023-02-16T15:25:37.499Z,41.98
2023-02-16T15:28:03.826Z,42.30
2023-02-16T15:30:30.263Z,42.36
2023-02-16T15:32:56.751Z,42.54
2023-02-16T15:35:23.061Z,42.62
2023-02-16T15:37:49.450Z,42.76
2023-02-16T15:40:25.844Z,43.02
2023-02-16T15:42:43.253Z,43.35
2023-02-16T15:45:09.735Z,43.63
2023-02-16T15:47:36.083Z,43.90
2023-02-16T15:50:02.564Z,44.13
2023-02-16T15:52:28.945Z,44.21
2023-02-16T15:54:55.256Z,44.77
2023-02-16T15:57:21.915Z,45.64
2023-02-16T15:59:48.240Z,46.05
2023-02-16T16:02:14.670Z,46.63
2023-02-16T16:04:41.048Z,46.95
2023-02-16T16:07:07.351Z,47.53
2023-02-16T16:09:33.672Z,47.80
2023-02-16T16:12:00.108Z,48.10
2023-02-16T16:14:26.418Z,48.29
2023-02-16T16:16:53.236Z,48.52
2023-02-16T16:19:19.579Z,48.91
2023-02-16T16:21:45.957Z,49.18
2023-02-16T16:24:12.373Z,49.26
2023-02-16T16:26:38.817Z,49.57
2023-02-16T16:29:05.076Z,50.03
2023-02-16T16:31:31.529Z,50.20
2023-02-16T16:33:57.790Z,50.62
2023-02-16T16:36:24.183Z,50.95
2023-02-16T16:38:50.529Z,51.17
2023-02-16T16:41:16.918Z,51.56
2023-02-16T16:43:43.362Z,51.91
2023-02-16T16:46:09.758Z,52.16
2023-02-16T16:48:36.090Z,52.32
2023-02-16T16:51:02.644Z,52.35
2023-02-16T16:53:28.873Z,52.58
2023-02-16T16:55:55.208Z,52.65
2023-02-16T16:58:21.558Z,52.61
2023-02-16T17:00:48.168Z,52.89
2023-02-16T17:03:14.646Z,53.16
2023-02-16T17:05:41.073Z,53.36
2023-02-16T17:08:07.363Z,53.81
2023-02-16T17:10:33.782Z,54.36
2023-02-16T17:13:00.130Z,54.95
2023-02-16T17:15:26.553Z,55.71
2023-02-16T17:17:52.862Z,56.02
2023-02-16T17:20:19.213Z,56.19
2023-02-16T17:22:45.545Z,56.41
2023-02-16T17:25:11.920Z,56.65
2023-02-16T17:27:38.307Z,57.43
2023-02-16T17:30:04.692Z,57.93
2023-02-16T17:32:31.081Z,58.19
2023-02-16T17:34:57.434Z,58.54
2023-02-16T17:37:23.798Z,58.74
2023-02-16T17:39:50.162Z,58.41
2023-02-16T17:42:16.530Z,59.39
2023-02-16T17:44:42.894Z,58.44
2023-02-16T17:47:09.456Z,58.79
2023-02-16T17:49:35.841Z,58.95
2023-02-16T17:52:02.162Z,59.50
2023-02-16T17:54:28.551Z,59.86
2023-02-16T17:56:55.110Z,59.96
2023-02-16T17:59:21.509Z,60.29
2023-02-16T18:01:47.887Z,60.49
2023-02-16T18:04:14.276Z,61.09
2023-02-16T18:06:40.556Z,60.96
2023-02-16T18:09:06.947Z,61.71
2023-02-16T18:11:33.291Z,62.21
2023-02-16T18:13:59.680Z,62.16
2023-02-16T18:16:26.080Z,62.55
2023-02-16T18:18:52.473Z,62.60
2023-02-16T18:21:18.785Z,63.31
2023-02-16T18:23:45.128Z,63.07
2023-02-16T18:26:11.540Z,62.97
2023-02-16T18:28:37.856Z,63.98
2023-02-16T18:31:05.445Z,63.97
2023-02-16T18:33:31.828Z,64.39
2023-02-16T18:35:58.465Z,64.60
2023-02-16T18:38:24.850Z,64.56
2023-02-16T18:40:51.438Z,64.55
2023-02-16T18:43:17.843Z,64.60
2023-02-16T18:45:44.199Z,64.75
2023-02-16T18:48:10.564Z,64.85
2023-02-16T18:50:36.928Z,65.07
2023-02-16T18:53:03.303Z,65.53
2023-02-16T18:55:29.894Z,65.94
2023-02-16T18:57:56.292Z,65.96
2023-02-16T19:00:22.668Z,66.31
2023-02-16T19:02:49.011Z,66.89
2023-02-16T19:05:15.330Z,67.40
2023-02-16T19:07:41.717Z,68.31
2023-02-16T19:10:08.086Z,68.62
2023-02-16T19:12:34.602Z,68.37
2023-02-16T19:15:01.218Z,67.84
2023-02-16T19:17:27.597Z,67.60
2023-02-16T19:19:53.906Z,67.53
2023-02-16T19:22:20.326Z,67.51
2023-02-16T19:24:46.877Z,67.46
2023-02-16T19:27:13.203Z,68.03
2023-02-16T19:29:39.596Z,69.21
2023-02-16T19:32:07.134Z,69.40
2023-02-16T19:34:33.648Z,69.54
2023-02-16T19:37:00.160Z,69.40
2023-02-16T19:39:26.517Z,69.15
2023-02-16T19:41:52.898Z,69.47
2023-02-16T19:44:19.211Z,70.01
2023-02-16T19:46:45.550Z,70.09
2023-02-16T19:49:11.914Z,70.21
2023-02-16T19:51:38.252Z,70.27
2023-02-16T19:54:04.623Z,70.69
2023-02-16T19:56:31.071Z,70.95
2023-02-16T19:58:57.442Z,71.21
2023-02-16T20:01:23.889Z,71.34
2023-02-16T20:03:50.186Z,71.43
2023-02-16T20:06:16.566Z,71.41
2023-02-16T20:08:42.879Z,70.98
2023-02-16T20:11:09.265Z,70.99
2023-02-16T20:13:35.609Z,71.16
2023-02-16T20:16:02.000Z,71.56
2023-02-16T20:18:28.271Z,71.77
2023-02-16T20:20:54.693Z,72.24
2023-02-16T20:23:21.055Z,72.39
2023-02-16T20:25:47.427Z,72.49
2023-02-16T20:28:14.052Z,72.63
2023-02-16T20:30:40.733Z,72.49
2023-02-16T20:33:07.098Z,72.55
2023-02-16T20:35:33.780Z,72.64
2023-02-16T20:38:00.142Z,73.15
2023-02-16T20:40:27.977Z,73.43
2023-02-16T20:42:54.441Z,73.84
2023-02-16T20:45:20.835Z,74.35
2023-02-16T20:47:47.204Z,74.57
2023-02-16T20:50:13.759Z,75.21
2023-02-16T20:52:40.138Z,75.83
2023-02-16T20:55:06.521Z,75.64
2023-02-16T20:57:32.873Z,75.33
2023-02-16T20:59:59.256Z,75.17
2023-02-16T21:02:25.722Z,75.08
2023-02-16T21:04:51.947Z,75.03
2023-02-16T21:07:18.361Z,74.90
2023-02-16T21:09:44.983Z,74.83
2023-02-16T21:12:11.306Z,74.81
2023-02-16T21:14:40.050Z,74.73
2023-02-16T21:17:06.645Z,74.77
2023-02-16T21:19:33.046Z,74.92
2023-02-16T21:21:59.399Z,75.02
2023-02-16T21:24:25.737Z,74.64
2023-02-16T21:26:52.067Z,75.02
2023-02-16T21:29:18.469Z,74.90
2023-02-16T21:31:45.046Z,74.81
2023-02-16T21:34:11.317Z,74.82
2023-02-16T21:36:37.663Z,74.89
2023-02-16T21:39:04.002Z,75.38
2023-02-16T21:41:30.329Z,75.58
2023-02-16T21:43:56.665Z,75.91
2023-02-16T21:46:23.040Z,76.29
2023-02-16T21:48:49.405Z,76.63
2023-02-16T21:51:15.762Z,77.58
2023-02-16T21:53:42.175Z,78.24
2023-02-16T21:56:08.633Z,78.16
2023-02-16T21:58:34.866Z,78.04
2023-02-16T22:01:01.396Z,78.63
2023-02-16T22:03:27.696Z,78.90
2023-02-16T22:05:54.057Z,79.08
2023-02-16T22:08:20.389Z,78.78
2023-02-16T22:10:46.831Z,78.62
2023-02-16T22:13:13.286Z,78.13
2023-02-16T22:15:39.603Z,77.82
2023-02-16T22:18:05.995Z,77.48
2023-02-16T22:20:32.353Z,77.42
2023-02-16T22:22:58.709Z,77.36
2023-02-16T22:25:25.065Z,77.16
2023-02-16T22:27:51.407Z,77.02
2023-02-16T22:30:17.752Z,76.88
2023-02-16T22:32:44.122Z,76.93
2023-02-16T22:35:10.434Z,76.82
2023-02-16T22:37:36.832Z,76.64
2023-02-16T22:40:03.185Z,76.78
2023-02-16T22:42:29.560Z,76.96
2023-02-16T22:44:56.093Z,77.14
2023-02-16T22:47:22.447Z,77.27
2023-02-16T22:49:48.809Z,77.63
2023-02-16T22:52:15.192Z,77.76
2023-02-16T22:54:41.575Z,77.79
2023-02-16T22:57:07.949Z,77.54
2023-02-16T22:59:34.272Z,77.66
2023-02-16T23:02:00.626Z,77.83
2023-02-16T23:04:27.012Z,77.95
2023-02-16T23:06:53.369Z,78.24
2023-02-16T23:09:19.718Z,78.14
2023-02-16T23:11:46.136Z,78.04
2023-02-16T23:14:12.457Z,78.00
2023-02-16T23:16:38.895Z,78.23
2023-02-16T23:19:05.233Z,78.54
2023-02-16T23:21:31.627Z,78.92
2023-02-16T23:23:58.002Z,78.76
2023-02-16T23:26:24.388Z,78.63
2023-02-16T23:28:50.748Z,78.62
2023-02-16T23:31:17.271Z,78.89
2023-02-16T23:33:43.449Z,78.93
2023-02-16T23:36:09.795Z,79.10
2023-02-16T23:38:36.130Z,79.18
2023-02-16T23:41:02.801Z,79.70
2023-02-16T23:43:29.210Z,79.89
2023-02-16T23:45:55.621Z,80.29
2023-02-16T23:48:21.896Z,80.37
2023-02-16T23:50:48.336Z,80.74
2023-02-16T23:53:14.681Z,81.07
2023-02-16T23:55:41.097Z,81.17
2023-02-16T23:58:07.444Z,81.17
